sensor_id;sensor_type;location;lat;lon;timestamp;temperature;humidity
75985;DHT22;65033;44.660;37.758;2023-04-03T00:01:08;12.86;75.38
75985;DHT22;65033;44.660;37.758;2023-04-03T00:02:12;12.87;75.28
75985;DHT22;65033;44.660;37.758;2023-04-03T00:03:15;12.90;75.23
75985;DHT22;65033;44.660;37.758;2023-04-03T00:04:19;12.87;75.28
75985;DHT22;65033;44.660;37.758;2023-04-03T00:05:25;12.87;75.19
75985;DHT22;65033;44.660;37.758;2023-04-03T00:06:29;12.88;75.22
75985;DHT22;65033;44.660;37.758;2023-04-03T00:07:32;12.88;75.28
75985;DHT22;65033;44.660;37.758;2023-04-03T00:08:35;12.91;75.23
75985;DHT22;65033;44.660;37.758;2023-04-03T00:09:39;12.92;75.38
75985;DHT22;65033;44.660;37.758;2023-04-03T00:10:42;12.94;75.18
75985;DHT22;65033;44.660;37.758;2023-04-03T00:11:45;12.97;75.15
75985;DHT22;65033;44.660;37.758;2023-04-03T00:12:50;12.95;75.28
75985;DHT22;65033;44.660;37.758;2023-04-03T00:13:53;12.94;75.14
75985;DHT22;65033;44.660;37.758;2023-04-03T00:14:57;12.94;75.07
75985;DHT22;65033;44.660;37.758;2023-04-03T00:16:01;12.94;74.92
75985;DHT22;65033;44.660;37.758;2023-04-03T00:17:06;12.94;74.86
75985;DHT22;65033;44.660;37.758;2023-04-03T00:18:10;12.93;74.85
75985;DHT22;65033;44.660;37.758;2023-04-03T00:19:13;12.91;74.76
75985;DHT22;65033;44.660;37.758;2023-04-03T00:20:16;12.88;75.04
75985;DHT22;65033;44.660;37.758;2023-04-03T00:21:19;12.88;74.96
75985;DHT22;65033;44.660;37.758;2023-04-03T00:22:23;12.85;74.98
75985;DHT22;65033;44.660;37.758;2023-04-03T00:23:26;12.77;75.22
75985;DHT22;65033;44.660;37.758;2023-04-03T00:24:29;12.78;75.35
75985;DHT22;65033;44.660;37.758;2023-04-03T00:25:33;12.77;75.47
75985;DHT22;65033;44.660;37.758;2023-04-03T00:26:36;12.75;75.67
75985;DHT22;65033;44.660;37.758;2023-04-03T00:27:40;12.75;75.70
75985;DHT22;65033;44.660;37.758;2023-04-03T00:28:45;12.71;76.02
75985;DHT22;65033;44.660;37.758;2023-04-03T00:29:49;12.67;76.22
75985;DHT22;65033;44.660;37.758;2023-04-03T00:30:53;12.65;76.33
75985;DHT22;65033;44.660;37.758;2023-04-03T00:31:57;12.66;76.24
75985;DHT22;65033;44.660;37.758;2023-04-03T00:33:00;12.66;76.14
75985;DHT22;65033;44.660;37.758;2023-04-03T00:34:03;12.65;76.24
75985;DHT22;65033;44.660;37.758;2023-04-03T00:35:08;12.66;76.21
75985;DHT22;65033;44.660;37.758;2023-04-03T00:36:13;12.66;76.10
75985;DHT22;65033;44.660;37.758;2023-04-03T00:37:16;12.69;75.98
75985;DHT22;65033;44.660;37.758;2023-04-03T00:38:20;12.71;76.02
75985;DHT22;65033;44.660;37.758;2023-04-03T00:39:23;12.69;76.10
75985;DHT22;65033;44.660;37.758;2023-04-03T00:40:27;12.69;75.96
75985;DHT22;65033;44.660;37.758;2023-04-03T00:41:30;12.67;75.92
75985;DHT22;65033;44.660;37.758;2023-04-03T00:42:35;12.70;75.95
75985;DHT22;65033;44.660;37.758;2023-04-03T00:43:39;12.72;75.67
75985;DHT22;65033;44.660;37.758;2023-04-03T00:46:21;12.76;75.35
75985;DHT22;65033;44.660;37.758;2023-04-03T00:47:24;12.76;75.07
75985;DHT22;65033;44.660;37.758;2023-04-03T00:48:30;12.79;75.02
75985;DHT22;65033;44.660;37.758;2023-04-03T00:49:35;12.78;75.09
75985;DHT22;65033;44.660;37.758;2023-04-03T00:50:41;12.78;74.90
75985;DHT22;65033;44.660;37.758;2023-04-03T00:51:46;12.78;74.89
75985;DHT22;65033;44.660;37.758;2023-04-03T00:52:49;12.75;74.96
75985;DHT22;65033;44.660;37.758;2023-04-03T00:53:58;12.76;74.93
75985;DHT22;65033;44.660;37.758;2023-04-03T00:55:05;12.76;75.12
75985;DHT22;65033;44.660;37.758;2023-04-03T00:56:10;12.75;75.12
75985;DHT22;65033;44.660;37.758;2023-04-03T00:57:16;12.77;75.12
75985;DHT22;65033;44.660;37.758;2023-04-03T00:58:20;12.79;75.09
75985;DHT22;65033;44.660;37.758;2023-04-03T00:59:28;12.75;75.46
75985;DHT22;65033;44.660;37.758;2023-04-03T01:00:34;12.72;75.70
75985;DHT22;65033;44.660;37.758;2023-04-03T01:01:42;12.69;75.80
75985;DHT22;65033;44.660;37.758;2023-04-03T01:02:45;12.65;76.08
75985;DHT22;65033;44.660;37.758;2023-04-03T01:03:50;12.63;76.34
75985;DHT22;65033;44.660;37.758;2023-04-03T01:04:54;12.62;76.44
75985;DHT22;65033;44.660;37.758;2023-04-03T01:05:57;12.63;76.44
75985;DHT22;65033;44.660;37.758;2023-04-03T01:07:07;12.67;76.48
75985;DHT22;65033;44.660;37.758;2023-04-03T01:08:11;12.65;76.60
75985;DHT22;65033;44.660;37.758;2023-04-03T01:09:14;12.64;76.52
75985;DHT22;65033;44.660;37.758;2023-04-03T01:10:18;12.65;76.52
75985;DHT22;65033;44.660;37.758;2023-04-03T01:11:23;12.66;76.77
75985;DHT22;65033;44.660;37.758;2023-04-03T01:12:30;12.67;76.89
75985;DHT22;65033;44.660;37.758;2023-04-03T01:13:34;12.71;76.90
75985;DHT22;65033;44.660;37.758;2023-04-03T01:14:39;12.71;76.92
75985;DHT22;65033;44.660;37.758;2023-04-03T01:15:42;12.70;77.10
75985;DHT22;65033;44.660;37.758;2023-04-03T01:16:53;12.67;77.33
75985;DHT22;65033;44.660;37.758;2023-04-03T01:17:57;12.64;77.40
75985;DHT22;65033;44.660;37.758;2023-04-03T01:19:03;12.60;77.56
75985;DHT22;65033;44.660;37.758;2023-04-03T01:20:31;12.61;77.66
75985;DHT22;65033;44.660;37.758;2023-04-03T01:22:01;12.62;77.73
75985;DHT22;65033;44.660;37.758;2023-04-03T01:23:13;12.63;77.87
75985;DHT22;65033;44.660;37.758;2023-04-03T01:24:31;12.60;78.24
75985;DHT22;65033;44.660;37.758;2023-04-03T01:25:38;12.61;78.32
75985;DHT22;65033;44.660;37.758;2023-04-03T01:26:42;12.60;78.37
75985;DHT22;65033;44.660;37.758;2023-04-03T01:27:45;12.60;78.72
75985;DHT22;65033;44.660;37.758;2023-04-03T01:28:49;12.60;78.88
75985;DHT22;65033;44.660;37.758;2023-04-03T01:29:53;12.60;78.93
75985;DHT22;65033;44.660;37.758;2023-04-03T01:31:01;12.61;78.95
75985;DHT22;65033;44.660;37.758;2023-04-03T01:32:09;12.65;79.13
75985;DHT22;65033;44.660;37.758;2023-04-03T01:33:13;12.65;79.23
75985;DHT22;65033;44.660;37.758;2023-04-03T01:34:16;12.63;79.46
75985;DHT22;65033;44.660;37.758;2023-04-03T01:35:20;12.64;79.57
75985;DHT22;65033;44.660;37.758;2023-04-03T01:36:25;12.66;79.66
75985;DHT22;65033;44.660;37.758;2023-04-03T01:37:29;12.65;79.81
75985;DHT22;65033;44.660;37.758;2023-04-03T01:38:32;12.63;80.17
75985;DHT22;65033;44.660;37.758;2023-04-03T01:39:36;12.62;80.27
75985;DHT22;65033;44.660;37.758;2023-04-03T01:40:39;12.56;80.59
75985;DHT22;65033;44.660;37.758;2023-04-03T01:41:43;12.53;80.82
75985;DHT22;65033;44.660;37.758;2023-04-03T01:42:52;12.53;80.96
75985;DHT22;65033;44.660;37.758;2023-04-03T01:43:55;12.55;80.90
75985;DHT22;65033;44.660;37.758;2023-04-03T01:44:58;12.53;81.04
75985;DHT22;65033;44.660;37.758;2023-04-03T01:46:01;12.55;81.19
75985;DHT22;65033;44.660;37.758;2023-04-03T01:47:09;12.52;81.55
75985;DHT22;65033;44.660;37.758;2023-04-03T01:48:14;12.55;81.46
75985;DHT22;65033;44.660;37.758;2023-04-03T01:49:18;12.56;81.57
75985;DHT22;65033;44.660;37.758;2023-04-03T01:50:22;12.53;81.85
75985;DHT22;65033;44.660;37.758;2023-04-03T01:51:25;12.50;82.08
75985;DHT22;65033;44.660;37.758;2023-04-03T01:52:28;12.49;82.14
75985;DHT22;65033;44.660;37.758;2023-04-03T01:53:32;12.49;82.20
75985;DHT22;65033;44.660;37.758;2023-04-03T01:54:35;12.52;82.20
75985;DHT22;65033;44.660;37.758;2023-04-03T01:55:38;12.51;82.33
75985;DHT22;65033;44.660;37.758;2023-04-03T01:56:41;12.53;82.38
75985;DHT22;65033;44.660;37.758;2023-04-03T01:57:44;12.50;82.78
75985;DHT22;65033;44.660;37.758;2023-04-03T01:58:48;12.48;82.70
75985;DHT22;65033;44.660;37.758;2023-04-03T01:59:52;12.48;82.79
75985;DHT22;65033;44.660;37.758;2023-04-03T02:00:55;12.50;82.61
75985;DHT22;65033;44.660;37.758;2023-04-03T02:01:59;12.51;82.59
75985;DHT22;65033;44.660;37.758;2023-04-03T02:03:04;12.52;82.55
75985;DHT22;65033;44.660;37.758;2023-04-03T02:04:08;12.52;82.65
75985;DHT22;65033;44.660;37.758;2023-04-03T02:05:12;12.51;82.65
75985;DHT22;65033;44.660;37.758;2023-04-03T02:06:15;12.51;82.75
75985;DHT22;65033;44.660;37.758;2023-04-03T02:07:18;12.49;82.70
75985;DHT22;65033;44.660;37.758;2023-04-03T02:08:21;12.47;82.87
75985;DHT22;65033;44.660;37.758;2023-04-03T02:09:25;12.45;83.04
75985;DHT22;65033;44.660;37.758;2023-04-03T02:10:29;12.42;83.37
75985;DHT22;65033;44.660;37.758;2023-04-03T02:11:32;12.42;83.33
75985;DHT22;65033;44.660;37.758;2023-04-03T02:12:36;12.38;83.50
75985;DHT22;65033;44.660;37.758;2023-04-03T02:13:39;12.38;83.57
75985;DHT22;65033;44.660;37.758;2023-04-03T02:14:42;12.40;83.59
75985;DHT22;65033;44.660;37.758;2023-04-03T02:15:47;12.38;83.64
75985;DHT22;65033;44.660;37.758;2023-04-03T02:16:54;12.38;83.65
75985;DHT22;65033;44.660;37.758;2023-04-03T02:17:58;12.37;83.68
75985;DHT22;65033;44.660;37.758;2023-04-03T02:19:03;12.40;83.73
75985;DHT22;65033;44.660;37.758;2023-04-03T02:20:07;12.44;83.51
75985;DHT22;65033;44.660;37.758;2023-04-03T02:21:10;12.47;83.31
75985;DHT22;65033;44.660;37.758;2023-04-03T02:22:13;12.45;83.37
75985;DHT22;65033;44.660;37.758;2023-04-03T02:23:17;12.43;83.50
75985;DHT22;65033;44.660;37.758;2023-04-03T02:24:20;12.44;83.48
75985;DHT22;65033;44.660;37.758;2023-04-03T02:25:23;12.44;83.52
75985;DHT22;65033;44.660;37.758;2023-04-03T02:26:26;12.42;83.61
75985;DHT22;65033;44.660;37.758;2023-04-03T02:27:30;12.47;83.40
75985;DHT22;65033;44.660;37.758;2023-04-03T02:28:35;12.48;83.32
75985;DHT22;65033;44.660;37.758;2023-04-03T02:29:38;12.46;83.36
75985;DHT22;65033;44.660;37.758;2023-04-03T02:30:41;12.48;83.38
75985;DHT22;65033;44.660;37.758;2023-04-03T02:31:45;12.48;83.39
75985;DHT22;65033;44.660;37.758;2023-04-03T02:32:49;12.45;83.63
75985;DHT22;65033;44.660;37.758;2023-04-03T02:33:52;12.41;83.79
75985;DHT22;65033;44.660;37.758;2023-04-03T02:34:57;12.44;83.80
75985;DHT22;65033;44.660;37.758;2023-04-03T02:36:01;12.42;83.94
75985;DHT22;65033;44.660;37.758;2023-04-03T02:37:05;12.41;84.02
75985;DHT22;65033;44.660;37.758;2023-04-03T02:38:09;12.38;84.23
75985;DHT22;65033;44.660;37.758;2023-04-03T02:39:12;12.34;84.39
75985;DHT22;65033;44.660;37.758;2023-04-03T02:40:15;12.34;84.52
75985;DHT22;65033;44.660;37.758;2023-04-03T02:41:19;12.34;84.48
75985;DHT22;65033;44.660;37.758;2023-04-03T02:42:25;12.34;84.55
75985;DHT22;65033;44.660;37.758;2023-04-03T02:43:29;12.37;84.42
75985;DHT22;65033;44.660;37.758;2023-04-03T02:44:32;12.41;84.31
75985;DHT22;65033;44.660;37.758;2023-04-03T02:45:35;12.41;84.16
75985;DHT22;65033;44.660;37.758;2023-04-03T02:46:39;12.40;84.26
75985;DHT22;65033;44.660;37.758;2023-04-03T02:47:42;12.34;84.52
75985;DHT22;65033;44.660;37.758;2023-04-03T02:48:45;12.33;84.64
75985;DHT22;65033;44.660;37.758;2023-04-03T02:49:48;12.31;84.87
75985;DHT22;65033;44.660;37.758;2023-04-03T02:50:54;12.30;84.92
75985;DHT22;65033;44.660;37.758;2023-04-03T02:51:57;12.31;84.86
75985;DHT22;65033;44.660;37.758;2023-04-03T02:53:01;12.31;84.90
75985;DHT22;65033;44.660;37.758;2023-04-03T02:54:05;12.34;84.83
75985;DHT22;65033;44.660;37.758;2023-04-03T02:55:13;12.38;84.70
75985;DHT22;65033;44.660;37.758;2023-04-03T02:56:19;12.41;84.59
75985;DHT22;65033;44.660;37.758;2023-04-03T02:57:23;12.44;84.48
75985;DHT22;65033;44.660;37.758;2023-04-03T02:58:27;12.45;84.44
75985;DHT22;65033;44.660;37.758;2023-04-03T02:59:32;12.45;84.47
75985;DHT22;65033;44.660;37.758;2023-04-03T03:00:36;12.47;84.48
75985;DHT22;65033;44.660;37.758;2023-04-03T03:01:41;12.46;84.61
75985;DHT22;65033;44.660;37.758;2023-04-03T03:02:45;12.48;84.59
75985;DHT22;65033;44.660;37.758;2023-04-03T03:03:48;12.49;84.45
75985;DHT22;65033;44.660;37.758;2023-04-03T03:04:52;12.47;84.56
75985;DHT22;65033;44.660;37.758;2023-04-03T03:06:07;12.45;84.74
75985;DHT22;65033;44.660;37.758;2023-04-03T03:07:11;12.45;84.73
75985;DHT22;65033;44.660;37.758;2023-04-03T03:08:14;12.46;84.82
75985;DHT22;65033;44.660;37.758;2023-04-03T03:09:18;12.44;84.76
75985;DHT22;65033;44.660;37.758;2023-04-03T03:10:22;12.46;84.72
75985;DHT22;65033;44.660;37.758;2023-04-03T03:11:26;12.47;84.74
75985;DHT22;65033;44.660;37.758;2023-04-03T03:12:29;12.46;84.77
75985;DHT22;65033;44.660;37.758;2023-04-03T03:13:33;12.50;84.75
75985;DHT22;65033;44.660;37.758;2023-04-03T03:14:37;12.46;84.81
75985;DHT22;65033;44.660;37.758;2023-04-03T03:15:40;12.47;84.81
75985;DHT22;65033;44.660;37.758;2023-04-03T03:16:44;12.42;84.92
75985;DHT22;65033;44.660;37.758;2023-04-03T03:17:47;12.42;85.19
75985;DHT22;65033;44.660;37.758;2023-04-03T03:18:50;12.42;85.24
75985;DHT22;65033;44.660;37.758;2023-04-03T03:19:54;12.42;85.17
75985;DHT22;65033;44.660;37.758;2023-04-03T03:20:59;12.43;85.25
75985;DHT22;65033;44.660;37.758;2023-04-03T03:22:05;12.43;85.35
75985;DHT22;65033;44.660;37.758;2023-04-03T03:23:09;12.47;85.23
75985;DHT22;65033;44.660;37.758;2023-04-03T03:24:12;12.47;85.24
75985;DHT22;65033;44.660;37.758;2023-04-03T03:25:16;12.49;85.08
75985;DHT22;65033;44.660;37.758;2023-04-03T03:26:19;12.50;85.00
75985;DHT22;65033;44.660;37.758;2023-04-03T03:27:23;12.49;85.10
75985;DHT22;65033;44.660;37.758;2023-04-03T03:28:27;12.49;85.17
75985;DHT22;65033;44.660;37.758;2023-04-03T03:29:30;12.47;85.20
75985;DHT22;65033;44.660;37.758;2023-04-03T03:30:34;12.48;85.19
75985;DHT22;65033;44.660;37.758;2023-04-03T03:31:38;12.45;85.28
75985;DHT22;65033;44.660;37.758;2023-04-03T03:32:42;12.47;85.26
75985;DHT22;65033;44.660;37.758;2023-04-03T03:33:45;12.44;85.43
75985;DHT22;65033;44.660;37.758;2023-04-03T03:34:49;12.41;85.64
75985;DHT22;65033;44.660;37.758;2023-04-03T03:35:53;12.40;85.70
75985;DHT22;65033;44.660;37.758;2023-04-03T03:36:56;12.44;85.63
75985;DHT22;65033;44.660;37.758;2023-04-03T03:38:01;12.46;85.47
75985;DHT22;65033;44.660;37.758;2023-04-03T03:39:07;12.47;85.38
75985;DHT22;65033;44.660;37.758;2023-04-03T03:40:11;12.94;90.86
75985;DHT22;65033;44.660;37.758;2023-04-03T03:41:16;13.74;88.89
75985;DHT22;65033;44.660;37.758;2023-04-03T03:42:20;13.89;80.61
75985;DHT22;65033;44.660;37.758;2023-04-03T03:43:24;13.86;79.11
75985;DHT22;65033;44.660;37.758;2023-04-03T03:44:29;13.82;78.88
75985;DHT22;65033;44.660;37.758;2023-04-03T03:45:33;13.73;78.94
75985;DHT22;65033;44.660;37.758;2023-04-03T03:46:36;13.56;79.51
75985;DHT22;65033;44.660;37.758;2023-04-03T03:47:40;13.48;79.95
75985;DHT22;65033;44.660;37.758;2023-04-03T03:48:44;13.34;80.33
75985;DHT22;65033;44.660;37.758;2023-04-03T03:49:47;13.24;80.97
75985;DHT22;65033;44.660;37.758;2023-04-03T03:50:51;13.14;81.33
75985;DHT22;65033;44.660;37.758;2023-04-03T03:51:59;13.03;81.90
75985;DHT22;65033;44.660;37.758;2023-04-03T03:53:03;13.02;82.06
75985;DHT22;65033;44.660;37.758;2023-04-03T03:54:07;12.96;82.23
75985;DHT22;65033;44.660;37.758;2023-04-03T03:55:11;12.90;82.55
75985;DHT22;65033;44.660;37.758;2023-04-03T03:56:15;12.86;82.81
75985;DHT22;65033;44.660;37.758;2023-04-03T03:57:20;12.84;82.97
75985;DHT22;65033;44.660;37.758;2023-04-03T03:58:24;12.81;83.00
75985;DHT22;65033;44.660;37.758;2023-04-03T03:59:28;12.82;83.00
75985;DHT22;65033;44.660;37.758;2023-04-03T04:00:31;12.81;83.04
75985;DHT22;65033;44.660;37.758;2023-04-03T04:01:36;12.82;82.84
75985;DHT22;65033;44.660;37.758;2023-04-03T04:02:40;12.81;82.85
75985;DHT22;65033;44.660;37.758;2023-04-03T04:03:47;12.84;82.93
75985;DHT22;65033;44.660;37.758;2023-04-03T04:04:55;12.87;82.61
75985;DHT22;65033;44.660;37.758;2023-04-03T04:05:58;12.87;82.45
75985;DHT22;65033;44.660;37.758;2023-04-03T04:07:02;12.88;82.17
75985;DHT22;65033;44.660;37.758;2023-04-03T04:08:09;12.87;82.20
75985;DHT22;65033;44.660;37.758;2023-04-03T04:09:13;12.87;82.13
75985;DHT22;65033;44.660;37.758;2023-04-03T04:10:16;12.87;82.10
75985;DHT22;65033;44.660;37.758;2023-04-03T04:11:21;12.87;82.07
75985;DHT22;65033;44.660;37.758;2023-04-03T04:12:26;12.87;82.05
75985;DHT22;65033;44.660;37.758;2023-04-03T04:13:30;12.87;82.26
75985;DHT22;65033;44.660;37.758;2023-04-03T04:14:34;12.88;82.15
75985;DHT22;65033;44.660;37.758;2023-04-03T04:15:37;12.89;82.03
75985;DHT22;65033;44.660;37.758;2023-04-03T04:16:41;12.88;81.97
75985;DHT22;65033;44.660;37.758;2023-04-03T04:17:50;12.88;81.89
75985;DHT22;65033;44.660;37.758;2023-04-03T04:18:53;12.91;81.91
75985;DHT22;65033;44.660;37.758;2023-04-03T04:19:57;12.88;82.09
75985;DHT22;65033;44.660;37.758;2023-04-03T04:21:01;12.87;82.14
75985;DHT22;65033;44.660;37.758;2023-04-03T04:22:05;12.84;82.29
75985;DHT22;65033;44.660;37.758;2023-04-03T04:23:10;13.14;89.30
75985;DHT22;65033;44.660;37.758;2023-04-03T04:24:14;13.69;83.93
75985;DHT22;65033;44.660;37.758;2023-04-03T04:25:17;14.44;86.32
75985;DHT22;65033;44.660;37.758;2023-04-03T04:26:21;15.08;79.13
75985;DHT22;65033;44.660;37.758;2023-04-03T04:27:24;15.70;76.77
75985;DHT22;65033;44.660;37.758;2023-04-03T04:28:28;15.59;70.70
75985;DHT22;65033;44.660;37.758;2023-04-03T04:29:33;15.33;70.78
75985;DHT22;65033;44.660;37.758;2023-04-03T04:30:40;15.08;71.41
75985;DHT22;65033;44.660;37.758;2023-04-03T04:31:44;14.80;72.57
75985;DHT22;65033;44.660;37.758;2023-04-03T04:32:49;14.59;73.34
75985;DHT22;65033;44.660;37.758;2023-04-03T04:33:55;14.42;74.30
75985;DHT22;65033;44.660;37.758;2023-04-03T04:34:58;14.29;74.71
75985;DHT22;65033;44.660;37.758;2023-04-03T04:36:04;14.17;75.34
75985;DHT22;65033;44.660;37.758;2023-04-03T04:37:08;14.04;76.03
75985;DHT22;65033;44.660;37.758;2023-04-03T04:38:14;13.90;76.61
75985;DHT22;65033;44.660;37.758;2023-04-03T04:39:17;13.83;77.02
75985;DHT22;65033;44.660;37.758;2023-04-03T04:40:21;13.77;77.32
75985;DHT22;65033;44.660;37.758;2023-04-03T04:41:24;13.73;77.45
75985;DHT22;65033;44.660;37.758;2023-04-03T04:42:28;13.66;77.79
75985;DHT22;65033;44.660;37.758;2023-04-03T04:43:32;13.62;78.14
75985;DHT22;65033;44.660;37.758;2023-04-03T04:44:35;13.56;78.48
75985;DHT22;65033;44.660;37.758;2023-04-03T04:45:39;13.53;78.60
75985;DHT22;65033;44.660;37.758;2023-04-03T04:46:42;13.47;78.79
75985;DHT22;65033;44.660;37.758;2023-04-03T04:47:46;13.46;78.90
75985;DHT22;65033;44.660;37.758;2023-04-03T04:48:52;13.44;78.95
75985;DHT22;65033;44.660;37.758;2023-04-03T04:49:57;13.38;79.06
75985;DHT22;65033;44.660;37.758;2023-04-03T04:51:01;13.32;79.33
75985;DHT22;65033;44.660;37.758;2023-04-03T04:52:05;13.30;79.50
75985;DHT22;65033;44.660;37.758;2023-04-03T04:53:10;13.29;79.40
75985;DHT22;65033;44.660;37.758;2023-04-03T04:54:14;13.23;79.72
75985;DHT22;65033;44.660;37.758;2023-04-03T04:55:19;13.25;79.88
75985;DHT22;65033;44.660;37.758;2023-04-03T04:56:22;13.20;79.97
75985;DHT22;65033;44.660;37.758;2023-04-03T04:57:26;13.20;80.22
75985;DHT22;65033;44.660;37.758;2023-04-03T04:58:32;13.24;80.14
75985;DHT22;65033;44.660;37.758;2023-04-03T04:59:37;13.23;80.29
75985;DHT22;65033;44.660;37.758;2023-04-03T05:00:42;13.25;80.24
75985;DHT22;65033;44.660;37.758;2023-04-03T05:01:46;13.31;81.86
75985;DHT22;65033;44.660;37.758;2023-04-03T05:02:52;13.79;85.11
75985;DHT22;65033;44.660;37.758;2023-04-03T05:03:56;14.56;85.27
75985;DHT22;65033;44.660;37.758;2023-04-03T05:05:00;14.87;75.15
75985;DHT22;65033;44.660;37.758;2023-04-03T05:06:05;14.87;73.67
75985;DHT22;65033;44.660;37.758;2023-04-03T05:07:10;14.83;73.22
75985;DHT22;65033;44.660;37.758;2023-04-03T05:08:14;14.74;73.25
75985;DHT22;65033;44.660;37.758;2023-04-03T05:09:19;14.62;73.41
75985;DHT22;65033;44.660;37.758;2023-04-03T05:10:24;14.51;73.95
75985;DHT22;65033;44.660;37.758;2023-04-03T05:11:28;14.45;74.35
75985;DHT22;65033;44.660;37.758;2023-04-03T05:12:32;14.37;74.60
75985;DHT22;65033;44.660;37.758;2023-04-03T05:13:38;14.29;74.21
75985;DHT22;65033;44.660;37.758;2023-04-03T05:14:42;14.18;74.73
75985;DHT22;65033;44.660;37.758;2023-04-03T05:15:46;14.10;74.99
75985;DHT22;65033;44.660;37.758;2023-04-03T05:16:50;14.01;75.63
75985;DHT22;65033;44.660;37.758;2023-04-03T05:18:00;13.98;75.87
75985;DHT22;65033;44.660;37.758;2023-04-03T05:19:03;14.21;83.77
75985;DHT22;65033;44.660;37.758;2023-04-03T05:20:08;14.92;84.96
75985;DHT22;65033;44.660;37.758;2023-04-03T05:21:12;15.74;82.49
75985;DHT22;65033;44.660;37.758;2023-04-03T05:22:16;15.82;70.21
75985;DHT22;65033;44.660;37.758;2023-04-03T05:23:20;15.70;69.55
75985;DHT22;65033;44.660;37.758;2023-04-03T05:24:25;15.56;69.65
75985;DHT22;65033;44.660;37.758;2023-04-03T05:25:30;15.41;70.23
75985;DHT22;65033;44.660;37.758;2023-04-03T05:26:33;15.26;70.81
75985;DHT22;65033;44.660;37.758;2023-04-03T05:27:37;15.15;71.10
75985;DHT22;65033;44.660;37.758;2023-04-03T05:28:41;15.04;71.48
75985;DHT22;65033;44.660;37.758;2023-04-03T05:29:45;14.91;71.80
75985;DHT22;65033;44.660;37.758;2023-04-03T05:30:55;14.75;72.58
75985;DHT22;65033;44.660;37.758;2023-04-03T05:32:00;14.64;73.15
75985;DHT22;65033;44.660;37.758;2023-04-03T05:33:04;14.56;73.76
75985;DHT22;65033;44.660;37.758;2023-04-03T05:34:16;14.50;74.09
75985;DHT22;65033;44.660;37.758;2023-04-03T05:35:22;14.47;74.26
75985;DHT22;65033;44.660;37.758;2023-04-03T05:36:29;14.39;74.50
75985;DHT22;65033;44.660;37.758;2023-04-03T05:37:37;14.37;74.87
75985;DHT22;65033;44.660;37.758;2023-04-03T05:38:40;14.33;74.98
75985;DHT22;65033;44.660;37.758;2023-04-03T05:39:47;14.29;75.25
75985;DHT22;65033;44.660;37.758;2023-04-03T05:40:50;14.29;74.94
75985;DHT22;65033;44.660;37.758;2023-04-03T05:41:53;14.26;75.06
75985;DHT22;65033;44.660;37.758;2023-04-03T05:42:57;14.25;75.05
75985;DHT22;65033;44.660;37.758;2023-04-03T05:44:03;14.24;75.07
75985;DHT22;65033;44.660;37.758;2023-04-03T05:45:08;14.17;75.44
75985;DHT22;65033;44.660;37.758;2023-04-03T05:46:11;14.58;84.61
75985;DHT22;65033;44.660;37.758;2023-04-03T05:47:17;15.30;80.95
75985;DHT22;65033;44.660;37.758;2023-04-03T05:48:21;15.38;71.12
75985;DHT22;65033;44.660;37.758;2023-04-03T05:49:25;15.27;71.19
75985;DHT22;65033;44.660;37.758;2023-04-03T05:50:28;15.18;71.43
75985;DHT22;65033;44.660;37.758;2023-04-03T05:51:34;14.99;72.05
75985;DHT22;65033;44.660;37.758;2023-04-03T05:52:49;14.87;72.34
75985;DHT22;65033;44.660;37.758;2023-04-03T05:53:58;14.72;72.77
75985;DHT22;65033;44.660;37.758;2023-04-03T05:55:08;14.65;73.32
75985;DHT22;65033;44.660;37.758;2023-04-03T05:56:11;14.51;74.16
75985;DHT22;65033;44.660;37.758;2023-04-03T05:57:16;14.37;75.00
75985;DHT22;65033;44.660;37.758;2023-04-03T05:58:19;14.28;75.44
75985;DHT22;65033;44.660;37.758;2023-04-03T05:59:24;14.21;75.79
75985;DHT22;65033;44.660;37.758;2023-04-03T06:00:31;14.12;76.35
75985;DHT22;65033;44.660;37.758;2023-04-03T06:01:37;14.09;76.14
75985;DHT22;65033;44.660;37.758;2023-04-03T06:02:42;14.06;76.44
75985;DHT22;65033;44.660;37.758;2023-04-03T06:03:52;14.01;76.58
75985;DHT22;65033;44.660;37.758;2023-04-03T06:04:55;13.98;76.58
75985;DHT22;65033;44.660;37.758;2023-04-03T06:05:59;13.91;77.13
75985;DHT22;65033;44.660;37.758;2023-04-03T06:07:02;13.91;77.33
75985;DHT22;65033;44.660;37.758;2023-04-03T06:08:06;13.88;77.44
75985;DHT22;65033;44.660;37.758;2023-04-03T06:09:09;13.81;77.80
75985;DHT22;65033;44.660;37.758;2023-04-03T06:10:14;14.09;84.21
75985;DHT22;65033;44.660;37.758;2023-04-03T06:11:21;14.17;77.50
75985;DHT22;65033;44.660;37.758;2023-04-03T06:12:25;14.17;76.13
75985;DHT22;65033;44.660;37.758;2023-04-03T06:13:32;14.13;76.21
75985;DHT22;65033;44.660;37.758;2023-04-03T06:14:36;14.10;76.20
75985;DHT22;65033;44.660;37.758;2023-04-03T06:15:40;14.10;76.35
75985;DHT22;65033;44.660;37.758;2023-04-03T06:16:44;14.13;75.90
75985;DHT22;65033;44.660;37.758;2023-04-03T06:17:47;14.13;76.08
75985;DHT22;65033;44.660;37.758;2023-04-03T06:18:51;14.18;75.81
75985;DHT22;65033;44.660;37.758;2023-04-03T06:19:55;14.18;76.05
75985;DHT22;65033;44.660;37.758;2023-04-03T06:21:01;14.12;76.84
75985;DHT22;65033;44.660;37.758;2023-04-03T06:22:05;14.12;76.66
75985;DHT22;65033;44.660;37.758;2023-04-03T06:23:09;14.21;76.14
75985;DHT22;65033;44.660;37.758;2023-04-03T06:24:15;14.20;75.74
75985;DHT22;65033;44.660;37.758;2023-04-03T06:25:20;14.26;75.57
75985;DHT22;65033;44.660;37.758;2023-04-03T06:26:24;14.27;76.50
75985;DHT22;65033;44.660;37.758;2023-04-03T06:27:28;14.36;75.59
75985;DHT22;65033;44.660;37.758;2023-04-03T06:28:31;14.39;75.22
75985;DHT22;65033;44.660;37.758;2023-04-03T06:29:35;14.41;76.05
75985;DHT22;65033;44.660;37.758;2023-04-03T06:30:38;14.41;76.12
75985;DHT22;65033;44.660;37.758;2023-04-03T06:31:42;14.51;74.88
75985;DHT22;65033;44.660;37.758;2023-04-03T06:32:45;14.60;74.76
75985;DHT22;65033;44.660;37.758;2023-04-03T06:33:48;14.63;74.96
75985;DHT22;65033;44.660;37.758;2023-04-03T06:34:52;14.64;74.50
75985;DHT22;65033;44.660;37.758;2023-04-03T06:35:57;14.65;74.32
75985;DHT22;65033;44.660;37.758;2023-04-03T06:37:01;14.65;74.48
75985;DHT22;65033;44.660;37.758;2023-04-03T06:38:07;14.74;74.34
75985;DHT22;65033;44.660;37.758;2023-04-03T06:39:16;14.77;75.50
75985;DHT22;65033;44.660;37.758;2023-04-03T06:40:23;14.85;74.17
75985;DHT22;65033;44.660;37.758;2023-04-03T06:41:27;14.86;74.19
75985;DHT22;65033;44.660;37.758;2023-04-03T06:42:31;14.92;73.53
75985;DHT22;65033;44.660;37.758;2023-04-03T06:43:42;15.02;72.41